sensor_id;sensor_type;location;lat;lon;timestamp;P1;durP1;ratioP1;P2;durP2;ratioP2
10295;SDS011;5193;51.032;6.356;2023-04-24T00:00:33;2.03;;;1.47;;
10295;SDS011;5193;51.032;6.356;2023-04-24T00:02:58;7.67;;;1.50;;
10295;SDS011;5193;51.032;6.356;2023-04-24T00:05:24;2.20;;;1.30;;
10295;SDS011;5193;51.032;6.356;2023-04-24T00:07:50;3.47;;;1.40;;
10295;SDS011;5193;51.032;6.356;2023-04-24T00:10:19;1.97;;;1.33;;
10295;SDS011;5193;51.032;6.356;2023-04-24T00:12:45;2.90;;;1.43;;
10295;SDS011;5193;51.032;6.356;2023-04-24T00:15:10;1.80;;;1.60;;
10295;SDS011;5193;51.032;6.356;2023-04-24T00:17:36;2.33;;;1.60;;
10295;SDS011;5193;51.032;6.356;2023-04-24T00:20:02;2.37;;;1.43;;
10295;SDS011;5193;51.032;6.356;2023-04-24T00:22:29;1.87;;;1.27;;
10295;SDS011;5193;51.032;6.356;2023-04-24T00:24:55;3.07;;;1.70;;
10295;SDS011;5193;51.032;6.356;2023-04-24T00:27:21;1.60;;;1.50;;
10295;SDS011;5193;51.032;6.356;2023-04-24T00:29:47;3.87;;;2.20;;
10295;SDS011;5193;51.032;6.356;2023-04-24T00:32:13;4.17;;;1.80;;
10295;SDS011;5193;51.032;6.356;2023-04-24T00:34:39;2.73;;;1.90;;
10295;SDS011;5193;51.032;6.356;2023-04-24T00:37:05;4.30;;;2.20;;
10295;SDS011;5193;51.032;6.356;2023-04-24T00:39:31;2.93;;;1.57;;
10295;SDS011;5193;51.032;6.356;2023-04-24T00:41:56;3.97;;;2.53;;
10295;SDS011;5193;51.032;6.356;2023-04-24T00:44:22;4.23;;;3.03;;
10295;SDS011;5193;51.032;6.356;2023-04-24T00:46:48;2.97;;;2.40;;
10295;SDS011;5193;51.032;6.356;2023-04-24T00:49:20;6.07;;;2.77;;
10295;SDS011;5193;51.032;6.356;2023-04-24T00:51:46;5.33;;;3.10;;
10295;SDS011;5193;51.032;6.356;2023-04-24T00:54:12;5.13;;;3.33;;
10295;SDS011;5193;51.032;6.356;2023-04-24T00:56:39;5.50;;;3.33;;
10295;SDS011;5193;51.032;6.356;2023-04-24T00:59:05;3.37;;;2.63;;
10295;SDS011;5193;51.032;6.356;2023-04-24T01:01:31;5.10;;;3.43;;
10295;SDS011;5193;51.032;6.356;2023-04-24T01:03:57;5.90;;;3.37;;
10295;SDS011;5193;51.032;6.356;2023-04-24T01:06:23;5.30;;;3.47;;
10295;SDS011;5193;51.032;6.356;2023-04-24T01:08:53;8.37;;;4.27;;
10295;SDS011;5193;51.032;6.356;2023-04-24T01:11:20;8.60;;;4.43;;
10295;SDS011;5193;51.032;6.356;2023-04-24T01:13:47;6.70;;;4.43;;
10295;SDS011;5193;51.032;6.356;2023-04-24T01:16:13;11.57;;;4.70;;
10295;SDS011;5193;51.032;6.356;2023-04-24T01:18:40;6.10;;;4.27;;
10295;SDS011;5193;51.032;6.356;2023-04-24T01:21:06;6.73;;;4.23;;
10295;SDS011;5193;51.032;6.356;2023-04-24T01:23:34;10.03;;;4.97;;
10295;SDS011;5193;51.032;6.356;2023-04-24T01:26:00;7.87;;;5.30;;
10295;SDS011;5193;51.032;6.356;2023-04-24T01:28:26;9.93;;;4.70;;
10295;SDS011;5193;51.032;6.356;2023-04-24T01:30:52;7.77;;;5.03;;
10295;SDS011;5193;51.032;6.356;2023-04-24T01:33:18;7.60;;;5.53;;
10295;SDS011;5193;51.032;6.356;2023-04-24T01:35:45;7.50;;;5.90;;
10295;SDS011;5193;51.032;6.356;2023-04-24T01:38:11;10.70;;;5.90;;
10295;SDS011;5193;51.032;6.356;2023-04-24T01:40:37;9.67;;;5.57;;
10295;SDS011;5193;51.032;6.356;2023-04-24T01:43:03;12.77;;;6.37;;
10295;SDS011;5193;51.032;6.356;2023-04-24T01:45:28;9.13;;;5.63;;
10295;SDS011;5193;51.032;6.356;2023-04-24T01:47:54;9.70;;;6.23;;
10295;SDS011;5193;51.032;6.356;2023-04-24T01:50:20;13.33;;;7.43;;
10295;SDS011;5193;51.032;6.356;2023-04-24T01:52:46;11.67;;;6.37;;
10295;SDS011;5193;51.032;6.356;2023-04-24T01:55:11;10.13;;;6.33;;
10295;SDS011;5193;51.032;6.356;2023-04-24T01:57:37;11.10;;;6.33;;
10295;SDS011;5193;51.032;6.356;2023-04-24T02:00:03;10.17;;;6.63;;
10295;SDS011;5193;51.032;6.356;2023-04-24T02:02:31;12.03;;;6.47;;
10295;SDS011;5193;51.032;6.356;2023-04-24T02:04:57;9.13;;;5.53;;
10295;SDS011;5193;51.032;6.356;2023-04-24T02:07:22;9.70;;;7.00;;
10295;SDS011;5193;51.032;6.356;2023-04-24T02:09:48;11.90;;;6.83;;
10295;SDS011;5193;51.032;6.356;2023-04-24T02:12:14;12.20;;;6.53;;
10295;SDS011;5193;51.032;6.356;2023-04-24T02:14:42;11.80;;;7.53;;
10295;SDS011;5193;51.032;6.356;2023-04-24T02:17:08;12.23;;;6.70;;
10295;SDS011;5193;51.032;6.356;2023-04-24T02:19:33;9.60;;;6.10;;
10295;SDS011;5193;51.032;6.356;2023-04-24T02:21:59;8.33;;;5.30;;
10295;SDS011;5193;51.032;6.356;2023-04-24T02:24:25;9.50;;;5.67;;
10295;SDS011;5193;51.032;6.356;2023-04-24T02:26:50;10.27;;;5.97;;
10295;SDS011;5193;51.032;6.356;2023-04-24T02:29:16;10.73;;;6.63;;
10295;SDS011;5193;51.032;6.356;2023-04-24T02:31:42;14.20;;;7.40;;
10295;SDS011;5193;51.032;6.356;2023-04-24T02:34:07;13.33;;;7.07;;
10295;SDS011;5193;51.032;6.356;2023-04-24T02:36:33;7.70;;;5.17;;
10295;SDS011;5193;51.032;6.356;2023-04-24T02:38:58;10.27;;;6.43;;
10295;SDS011;5193;51.032;6.356;2023-04-24T02:41:24;9.30;;;5.77;;
10295;SDS011;5193;51.032;6.356;2023-04-24T02:43:50;9.70;;;5.33;;
10295;SDS011;5193;51.032;6.356;2023-04-24T02:46:15;12.83;;;7.10;;
10295;SDS011;5193;51.032;6.356;2023-04-24T02:48:41;10.27;;;5.67;;
10295;SDS011;5193;51.032;6.356;2023-04-24T02:51:06;11.90;;;6.83;;
10295;SDS011;5193;51.032;6.356;2023-04-24T02:53:32;9.53;;;5.63;;
10295;SDS011;5193;51.032;6.356;2023-04-24T02:55:57;12.77;;;5.70;;
10295;SDS011;5193;51.032;6.356;2023-04-24T02:58:23;8.60;;;6.10;;
10295;SDS011;5193;51.032;6.356;2023-04-24T03:00:52;13.83;;;6.40;;
10295;SDS011;5193;51.032;6.356;2023-04-24T03:03:19;14.60;;;6.30;;
10295;SDS011;5193;51.032;6.356;2023-04-24T03:05:45;9.13;;;5.57;;
10295;SDS011;5193;51.032;6.356;2023-04-24T03:08:10;11.57;;;6.50;;
10295;SDS011;5193;51.032;6.356;2023-04-24T03:10:36;10.43;;;6.00;;
10295;SDS011;5193;51.032;6.356;2023-04-24T03:13:01;14.00;;;7.47;;
10295;SDS011;5193;51.032;6.356;2023-04-24T03:15:27;11.73;;;7.00;;
10295;SDS011;5193;51.032;6.356;2023-04-24T03:17:53;12.93;;;7.30;;
10295;SDS011;5193;51.032;6.356;2023-04-24T03:20:18;15.03;;;7.13;;
10295;SDS011;5193;51.032;6.356;2023-04-24T03:22:44;7.03;;;4.70;;
10295;SDS011;5193;51.032;6.356;2023-04-24T03:25:09;10.70;;;5.67;;
10295;SDS011;5193;51.032;6.356;2023-04-24T03:27:35;10.87;;;6.00;;
10295;SDS011;5193;51.032;6.356;2023-04-24T03:30:01;8.37;;;5.77;;
10295;SDS011;5193;51.032;6.356;2023-04-24T03:32:27;9.10;;;6.60;;
10295;SDS011;5193;51.032;6.356;2023-04-24T03:34:52;10.77;;;6.43;;
10295;SDS011;5193;51.032;6.356;2023-04-24T03:37:18;9.10;;;6.70;;
10295;SDS011;5193;51.032;6.356;2023-04-24T03:39:44;10.27;;;5.17;;
10295;SDS011;5193;51.032;6.356;2023-04-24T03:42:09;7.40;;;5.37;;
10295;SDS011;5193;51.032;6.356;2023-04-24T03:44:35;10.17;;;6.33;;
10295;SDS011;5193;51.032;6.356;2023-04-24T03:47:01;12.30;;;6.10;;
10295;SDS011;5193;51.032;6.356;2023-04-24T03:49:26;9.97;;;6.50;;
10295;SDS011;5193;51.032;6.356;2023-04-24T03:51:52;11.70;;;5.97;;
10295;SDS011;5193;51.032;6.356;2023-04-24T03:54:18;10.00;;;5.80;;
10295;SDS011;5193;51.032;6.356;2023-04-24T03:56:44;10.53;;;7.10;;
10295;SDS011;5193;51.032;6.356;2023-04-24T03:59:10;7.03;;;4.77;;
10295;SDS011;5193;51.032;6.356;2023-04-24T04:01:35;11.03;;;6.13;;
10295;SDS011;5193;51.032;6.356;2023-04-24T04:04:02;9.87;;;5.53;;
10295;SDS011;5193;51.032;6.356;2023-04-24T04:06:31;13.40;;;5.37;;
10295;SDS011;5193;51.032;6.356;2023-04-24T04:08:57;10.47;;;6.17;;
10295;SDS011;5193;51.032;6.356;2023-04-24T04:11:23;10.10;;;5.40;;
10295;SDS011;5193;51.032;6.356;2023-04-24T04:13:49;8.13;;;5.30;;
10295;SDS011;5193;51.032;6.356;2023-04-24T04:16:15;7.97;;;5.00;;
10295;SDS011;5193;51.032;6.356;2023-04-24T04:18:44;12.13;;;5.40;;
10295;SDS011;5193;51.032;6.356;2023-04-24T04:21:10;8.47;;;5.60;;
10295;SDS011;5193;51.032;6.356;2023-04-24T04:23:36;8.57;;;5.40;;
10295;SDS011;5193;51.032;6.356;2023-04-24T04:26:01;9.20;;;5.23;;
10295;SDS011;5193;51.032;6.356;2023-04-24T04:28:28;6.97;;;4.73;;
10295;SDS011;5193;51.032;6.356;2023-04-24T04:30:55;11.83;;;5.57;;
10295;SDS011;5193;51.032;6.356;2023-04-24T04:33:22;7.60;;;4.97;;
10295;SDS011;5193;51.032;6.356;2023-04-24T04:35:51;6.00;;;3.97;;
10295;SDS011;5193;51.032;6.356;2023-04-24T04:38:20;7.30;;;5.50;;
10295;SDS011;5193;51.032;6.356;2023-04-24T04:40:45;6.83;;;4.30;;
10295;SDS011;5193;51.032;6.356;2023-04-24T04:43:11;9.13;;;5.13;;
10295;SDS011;5193;51.032;6.356;2023-04-24T04:45:38;7.53;;;4.83;;
10295;SDS011;5193;51.032;6.356;2023-04-24T04:48:05;7.17;;;4.93;;
10295;SDS011;5193;51.032;6.356;2023-04-24T04:50:32;6.40;;;4.97;;
10295;SDS011;5193;51.032;6.356;2023-04-24T04:52:58;8.10;;;4.90;;
10295;SDS011;5193;51.032;6.356;2023-04-24T04:55:24;7.90;;;5.17;;
10295;SDS011;5193;51.032;6.356;2023-04-24T04:57:50;5.83;;;4.33;;
10295;SDS011;5193;51.032;6.356;2023-04-24T05:00:16;6.67;;;4.27;;
10295;SDS011;5193;51.032;6.356;2023-04-24T05:02:42;7.07;;;5.70;;
10295;SDS011;5193;51.032;6.356;2023-04-24T05:05:08;6.47;;;5.27;;
10295;SDS011;5193;51.032;6.356;2023-04-24T05:07:34;7.53;;;4.80;;
10295;SDS011;5193;51.032;6.356;2023-04-24T05:10:00;4.57;;;4.10;;
10295;SDS011;5193;51.032;6.356;2023-04-24T05:12:25;6.70;;;4.97;;
10295;SDS011;5193;51.032;6.356;2023-04-24T05:14:51;6.13;;;4.37;;
10295;SDS011;5193;51.032;6.356;2023-04-24T05:17:17;6.17;;;4.47;;
10295;SDS011;5193;51.032;6.356;2023-04-24T05:19:43;5.23;;;3.60;;
10295;SDS011;5193;51.032;6.356;2023-04-24T05:22:08;6.50;;;4.07;;
10295;SDS011;5193;51.032;6.356;2023-04-24T05:24:36;4.43;;;3.23;;
10295;SDS011;5193;51.032;6.356;2023-04-24T05:27:02;6.07;;;3.97;;
10295;SDS011;5193;51.032;6.356;2023-04-24T05:29:29;5.97;;;3.90;;
10295;SDS011;5193;51.032;6.356;2023-04-24T05:31:56;4.47;;;3.60;;
10295;SDS011;5193;51.032;6.356;2023-04-24T05:34:22;5.67;;;3.07;;
10295;SDS011;5193;51.032;6.356;2023-04-24T05:36:48;4.63;;;3.47;;
10295;SDS011;5193;51.032;6.356;2023-04-24T05:39:13;2.93;;;2.50;;
10295;SDS011;5193;51.032;6.356;2023-04-24T05:41:40;6.80;;;3.80;;
10295;SDS011;5193;51.032;6.356;2023-04-24T05:44:05;7.17;;;4.10;;
10295;SDS011;5193;51.032;6.356;2023-04-24T05:46:31;5.47;;;3.60;;
10295;SDS011;5193;51.032;6.356;2023-04-24T05:48:56;7.90;;;3.80;;
10295;SDS011;5193;51.032;6.356;2023-04-24T05:51:22;4.23;;;3.43;;
10295;SDS011;5193;51.032;6.356;2023-04-24T05:53:48;3.50;;;2.50;;
10295;SDS011;5193;51.032;6.356;2023-04-24T05:56:14;3.77;;;3.10;;
10295;SDS011;5193;51.032;6.356;2023-04-24T05:58:40;5.60;;;3.10;;
10295;SDS011;5193;51.032;6.356;2023-04-24T06:01:06;4.80;;;3.43;;
10295;SDS011;5193;51.032;6.356;2023-04-24T06:03:31;3.17;;;2.77;;
10295;SDS011;5193;51.032;6.356;2023-04-24T06:05:57;4.33;;;2.20;;
10295;SDS011;5193;51.032;6.356;2023-04-24T06:08:23;4.50;;;2.57;;
10295;SDS011;5193;51.032;6.356;2023-04-24T06:10:49;3.57;;;2.63;;
10295;SDS011;5193;51.032;6.356;2023-04-24T06:13:14;3.27;;;2.30;;
10295;SDS011;5193;51.032;6.356;2023-04-24T06:15:40;6.37;;;3.20;;
10295;SDS011;5193;51.032;6.356;2023-04-24T06:18:06;2.73;;;1.70;;
10295;SDS011;5193;51.032;6.356;2023-04-24T06:20:32;4.13;;;2.50;;
10295;SDS011;5193;51.032;6.356;2023-04-24T06:22:58;4.20;;;2.30;;
10295;SDS011;5193;51.032;6.356;2023-04-24T06:25:28;2.43;;;1.60;;
10295;SDS011;5193;51.032;6.356;2023-04-24T06:27:54;5.43;;;2.63;;
10295;SDS011;5193;51.032;6.356;2023-04-24T06:30:20;1.53;;;1.30;;
10295;SDS011;5193;51.032;6.356;2023-04-24T06:32:46;2.63;;;2.27;;
10295;SDS011;5193;51.032;6.356;2023-04-24T06:35:12;4.03;;;2.03;;
10295;SDS011;5193;51.032;6.356;2023-04-24T06:37:40;4.10;;;1.93;;
10295;SDS011;5193;51.032;6.356;2023-04-24T06:40:07;3.43;;;1.90;;
10295;SDS011;5193;51.032;6.356;2023-04-24T06:42:33;3.20;;;1.80;;
10295;SDS011;5193;51.032;6.356;2023-04-24T06:45:00;3.80;;;1.60;;
10295;SDS011;5193;51.032;6.356;2023-04-24T06:47:26;1.83;;;1.30;;
10295;SDS011;5193;51.032;6.356;2023-04-24T06:49:51;1.77;;;1.07;;
10295;SDS011;5193;51.032;6.356;2023-04-24T06:52:18;3.07;;;1.60;;
10295;SDS011;5193;51.032;6.356;2023-04-24T06:54:43;1.67;;;1.43;;
10295;SDS011;5193;51.032;6.356;2023-04-24T06:57:09;3.70;;;1.70;;
10295;SDS011;5193;51.032;6.356;2023-04-24T06:59:35;1.43;;;1.33;;
10295;SDS011;5193;51.032;6.356;2023-04-24T07:02:01;5.03;;;2.50;;
10295;SDS011;5193;51.032;6.356;2023-04-24T07:04:27;1.90;;;1.30;;
10295;SDS011;5193;51.032;6.356;2023-04-24T07:06:53;3.50;;;1.70;;
10295;SDS011;5193;51.032;6.356;2023-04-24T07:09:23;3.20;;;2.10;;
10295;SDS011;5193;51.032;6.356;2023-04-24T07:11:50;1.97;;;1.70;;
10295;SDS011;5193;51.032;6.356;2023-04-24T07:14:19;3.60;;;1.50;;
10295;SDS011;5193;51.032;6.356;2023-04-24T07:16:45;2.50;;;1.93;;
10295;SDS011;5193;51.032;6.356;2023-04-24T07:19:11;3.10;;;2.30;;
10295;SDS011;5193;51.032;6.356;2023-04-24T07:21:38;2.30;;;1.73;;
10295;SDS011;5193;51.032;6.356;2023-04-24T07:24:03;2.20;;;1.90;;
10295;SDS011;5193;51.032;6.356;2023-04-24T07:26:29;1.40;;;1.30;;
10295;SDS011;5193;51.032;6.356;2023-04-24T07:28:55;2.43;;;1.40;;
10295;SDS011;5193;51.032;6.356;2023-04-24T07:31:21;4.87;;;2.23;;
10295;SDS011;5193;51.032;6.356;2023-04-24T07:33:46;9.07;;;3.80;;
10295;SDS011;5193;51.032;6.356;2023-04-24T07:36:12;5.07;;;2.40;;
10295;SDS011;5193;51.032;6.356;2023-04-24T07:38:42;2.70;;;1.93;;
10295;SDS011;5193;51.032;6.356;2023-04-24T07:41:08;1.57;;;1.27;;
10295;SDS011;5193;51.032;6.356;2023-04-24T07:43:33;1.23;;;1.07;;
10295;SDS011;5193;51.032;6.356;2023-04-24T07:45:59;4.70;;;1.90;;
10295;SDS011;5193;51.032;6.356;2023-04-24T07:48:25;2.83;;;1.90;;
10295;SDS011;5193;51.032;6.356;2023-04-24T07:50:51;4.27;;;2.03;;
10295;SDS011;5193;51.032;6.356;2023-04-24T07:53:17;1.87;;;1.60;;
10295;SDS011;5193;51.032;6.356;2023-04-24T07:55:43;2.40;;;1.50;;
10295;SDS011;5193;51.032;6.356;2023-04-24T07:58:08;1.13;;;1.00;;
10295;SDS011;5193;51.032;6.356;2023-04-24T08:00:34;2.30;;;1.60;;
10295;SDS011;5193;51.032;6.356;2023-04-24T08:02:59;1.90;;;1.50;;
10295;SDS011;5193;51.032;6.356;2023-04-24T08:05:25;1.90;;;1.70;;
10295;SDS011;5193;51.032;6.356;2023-04-24T08:07:52;2.20;;;1.40;;
10295;SDS011;5193;51.032;6.356;2023-04-24T08:10:18;1.40;;;1.30;;
10295;SDS011;5193;51.032;6.356;2023-04-24T08:12:43;1.90;;;1.47;;
10295;SDS011;5193;51.032;6.356;2023-04-24T08:15:09;3.07;;;1.63;;
10295;SDS011;5193;51.032;6.356;2023-04-24T08:17:35;1.60;;;1.27;;
10295;SDS011;5193;51.032;6.356;2023-04-24T08:20:02;1.67;;;1.40;;
10295;SDS011;5193;51.032;6.356;2023-04-24T08:22:28;2.67;;;1.47;;
10295;SDS011;5193;51.032;6.356;2023-04-24T08:24:54;1.63;;;1.40;;
10295;SDS011;5193;51.032;6.356;2023-04-24T08:27:21;4.07;;;1.90;;
10295;SDS011;5193;51.032;6.356;2023-04-24T08:29:49;2.33;;;1.47;;
10295;SDS011;5193;51.032;6.356;2023-04-24T08:32:15;2.10;;;1.37;;
10295;SDS011;5193;51.032;6.356;2023-04-24T08:34:42;4.70;;;2.00;;
10295;SDS011;5193;51.032;6.356;2023-04-24T08:37:07;4.00;;;2.60;;
10295;SDS011;5193;51.032;6.356;2023-04-24T08:39:33;3.17;;;2.23;;
10295;SDS011;5193;51.032;6.356;2023-04-24T08:41:59;4.17;;;2.20;;
10295;SDS011;5193;51.032;6.356;2023-04-24T08:44:30;2.83;;;2.10;;
10295;SDS011;5193;51.032;6.356;2023-04-24T08:46:57;4.90;;;3.00;;
10295;SDS011;5193;51.032;6.356;2023-04-24T08:49:23;4.30;;;2.33;;
10295;SDS011;5193;51.032;6.356;2023-04-24T08:51:50;3.90;;;2.70;;
10295;SDS011;5193;51.032;6.356;2023-04-24T08:54:17;6.57;;;3.30;;
10295;SDS011;5193;51.032;6.356;2023-04-24T08:56:43;5.37;;;3.10;;
10295;SDS011;5193;51.032;6.356;2023-04-24T08:59:11;6.13;;;2.80;;
10295;SDS011;5193;51.032;6.356;2023-04-24T09:01:38;3.87;;;3.00;;
10295;SDS011;5193;51.032;6.356;2023-04-24T09:04:04;4.27;;;2.70;;
10295;SDS011;5193;51.032;6.356;2023-04-24T09:06:34;4.97;;;3.10;;
10295;SDS011;5193;51.032;6.356;2023-04-24T09:09:00;6.50;;;3.10;;
10295;SDS011;5193;51.032;6.356;2023-04-24T09:11:28;8.10;;;3.67;;
10295;SDS011;5193;51.032;6.356;2023-04-24T09:13:55;5.83;;;3.97;;
10295;SDS011;5193;51.032;6.356;2023-04-24T09:16:21;6.33;;;3.40;;
10295;SDS011;5193;51.032;6.356;2023-04-24T09:18:49;4.53;;;2.40;;
10295;SDS011;5193;51.032;6.356;2023-04-24T09:21:15;6.10;;;3.50;;
10295;SDS011;5193;51.032;6.356;2023-04-24T09:23:40;5.10;;;3.00;;
10295;SDS011;5193;51.032;6.356;2023-04-24T09:26:06;7.37;;;4.63;;
10295;SDS011;5193;51.032;6.356;2023-04-24T09:28:35;5.90;;;3.57;;
10295;SDS011;5193;51.032;6.356;2023-04-24T09:31:14;5.93;;;3.77;;
10295;SDS011;5193;51.032;6.356;2023-04-24T09:33:56;6.07;;;3.50;;
10295;SDS011;5193;51.032;6.356;2023-04-24T09:36:28;4.50;;;2.93;;
10295;SDS011;5193;51.032;6.356;2023-04-24T09:38:55;6.33;;;3.40;;
10295;SDS011;5193;51.032;6.356;2023-04-24T09:41:23;3.97;;;2.77;;
10295;SDS011;5193;51.032;6.356;2023-04-24T09:43:48;8.67;;;2.50;;
10295;SDS011;5193;51.032;6.356;2023-04-24T09:46:14;5.23;;;2.20;;
10295;SDS011;5193;51.032;6.356;2023-04-24T09:48:43;3.50;;;2.07;;
10295;SDS011;5193;51.032;6.356;2023-04-24T09:51:08;2.83;;;1.80;;
10295;SDS011;5193;51.032;6.356;2023-04-24T09:53:36;3.97;;;2.43;;
10295;SDS011;5193;51.032;6.356;2023-04-24T09:56:02;5.43;;;2.73;;
10295;SDS011;5193;51.032;6.356;2023-04-24T09:58:31;4.23;;;2.17;;
10295;SDS011;5193;51.032;6.356;2023-04-24T10:00:57;3.30;;;2.00;;
10295;SDS011;5193;51.032;6.356;2023-04-24T10:03:25;7.17;;;3.07;;
10295;SDS011;5193;51.032;6.356;2023-04-24T10:05:54;4.77;;;2.93;;
10295;SDS011;5193;51.032;6.356;2023-04-24T10:08:24;5.43;;;1.90;;
10295;SDS011;5193;51.032;6.356;2023-04-24T10:10:51;5.27;;;2.70;;
10295;SDS011;5193;51.032;6.356;2023-04-24T10:13:17;8.23;;;3.50;;
10295;SDS011;5193;51.032;6.356;2023-04-24T10:15:43;6.97;;;3.60;;
10295;SDS011;5193;51.032;6.356;2023-04-24T10:18:10;5.43;;;3.53;;
10295;SDS011;5193;51.032;6.356;2023-04-24T10:20:36;7.87;;;3.40;;
10295;SDS011;5193;51.032;6.356;2023-04-24T10:23:03;7.10;;;3.53;;
10295;SDS011;5193;51.032;6.356;2023-04-24T10:25:30;5.87;;;3.13;;
10295;SDS011;5193;51.032;6.356;2023-04-24T10:27:57;8.10;;;3.27;;
10295;SDS011;5193;51.032;6.356;2023-04-24T10:30:25;6.97;;;3.43;;
10295;SDS011;5193;51.032;6.356;2023-04-24T10:33:05;8.43;;;2.93;;
10295;SDS011;5193;51.032;6.356;2023-04-24T10:35:34;5.40;;;2.17;;
10295;SDS011;5193;51.032;6.356;2023-04-24T10:40:32;6.97;;;2.77;;
10295;SDS011;5193;51.032;6.356;2023-04-24T10:42:59;6.07;;;2.63;;
10295;SDS011;5193;51.032;6.356;2023-04-24T10:45:27;4.77;;;2.43;;
10295;SDS011;5193;51.032;6.356;2023-04-24T10:47:56;4.87;;;2.40;;
10295;SDS011;5193;51.032;6.356;2023-04-24T10:50:25;5.10;;;2.13;;
10295;SDS011;5193;51.032;6.356;2023-04-24T10:52:52;5.40;;;2.57;;
10295;SDS011;5193;51.032;6.356;2023-04-24T10:58:04;3.90;;;2.10;;
10295;SDS011;5193;51.032;6.356;2023-04-24T11:00:30;9.50;;;2.33;;
10295;SDS011;5193;51.032;6.356;2023-04-24T11:02:56;7.97;;;2.60;;
10295;SDS011;5193;51.032;6.356;2023-04-24T11:05:22;6.40;;;2.70;;
10295;SDS011;5193;51.032;6.356;2023-04-24T11:08:24;10.20;;;2.47;;
10295;SDS011;5193;51.032;6.356;2023-04-24T11:11:08;9.00;;;3.20;;
10295;SDS011;5193;51.032;6.356;2023-04-24T11:18:51;8.23;;;3.10;;
10295;SDS011;5193;51.032;6.356;2023-04-24T11:21:24;5.80;;;2.87;;
10295;SDS011;5193;51.032;6.356;2023-04-24T11:23:51;9.10;;;3.40;;
10295;SDS011;5193;51.032;6.356;2023-04-24T11:26:21;7.53;;;2.97;;
10295;SDS011;5193;51.032;6.356;2023-04-24T11:28:55;7.60;;;3.10;;
10295;SDS011;5193;51.032;6.356;2023-04-24T11:31:39;7.23;;;3.30;;
10295;SDS011;5193;51.032;6.356;2023-04-24T11:34:10;10.20;;;3.30;;
10295;SDS011;5193;51.032;6.356;2023-04-24T11:36:37;7.77;;;3.40;;
10295;SDS011;5193;51.032;6.356;2023-04-24T11:39:04;8.47;;;3.53;;
10295;SDS011;5193;51.032;6.356;2023-04-24T11:41:30;12.03;;;3.30;;
10295;SDS011;5193;51.032;6.356;2023-04-24T11:43:56;9.87;;;3.43;;
10295;SDS011;5193;51.032;6.356;2023-04-24T11:46:22;13.93;;;3.10;;
10295;SDS011;5193;51.032;6.356;2023-04-24T11:48:51;9.53;;;3.87;;
10295;SDS011;5193;51.032;6.356;2023-04-24T11:51:17;9.83;;;3.40;;
10295;SDS011;5193;51.032;6.356;2023-04-24T11:53:42;13.47;;;3.20;;
10295;SDS011;5193;51.032;6.356;2023-04-24T11:56:09;8.93;;;3.37;;
10295;SDS011;5193;51.032;6.356;2023-04-24T11:58:35;10.67;;;3.47;;
10295;SDS011;5193;51.032;6.356;2023-04-24T12:01:01;11.20;;;3.47;;
10295;SDS011;5193;51.032;6.356;2023-04-24T12:03:27;12.07;;;4.10;;
10295;SDS011;5193;51.032;6.356;2023-04-24T12:05:53;11.87;;;3.10;;
10295;SDS011;5193;51.032;6.356;2023-04-24T12:08:31;6.53;;;2.93;;
10295;SDS011;5193;51.032;6.356;2023-04-24T12:10:57;6.83;;;3.03;;
10295;SDS011;5193;51.032;6.356;2023-04-24T12:13:25;8.90;;;3.00;;
10295;SDS011;5193;51.032;6.356;2023-04-24T12:15:50;7.90;;;2.90;;
10295;SDS011;5193;51.032;6.356;2023-04-24T12:18:16;7.27;;;2.90;;
10295;SDS011;5193;51.032;6.356;2023-04-24T12:20:42;5.97;;;2.50;;
10295;SDS011;5193;51.032;6.356;2023-04-24T12:23:08;8.97;;;2.90;;
10295;SDS011;5193;51.032;6.356;2023-04-24T12:25:34;8.00;;;2.73;;
10295;SDS011;5193;51.032;6.356;2023-04-24T12:30:28;12.47;;;3.43;;
10295;SDS011;5193;51.032;6.356;2023-04-24T12:32:56;6.90;;;2.60;;
10295;SDS011;5193;51.032;6.356;2023-04-24T12:35:23;7.97;;;2.53;;
10295;SDS011;5193;51.032;6.356;2023-04-24T12:37:51;5.03;;;2.47;;
10295;SDS011;5193;51.032;6.356;2023-04-24T12:40:17;6.97;;;2.70;;
10295;SDS011;5193;51.032;6.356;2023-04-24T12:42:44;6.70;;;2.43;;
10295;SDS011;5193;51.032;6.356;2023-04-24T12:45:14;4.53;;;1.97;;
10295;SDS011;5193;51.032;6.356;2023-04-24T12:47:41;7.50;;;2.60;;
10295;SDS011;5193;51.032;6.356;2023-04-24T12:50:07;5.93;;;2.77;;
10295;SDS011;5193;51.032;6.356;2023-04-24T12:52:34;6.90;;;2.23;;
10295;SDS011;5193;51.032;6.356;2023-04-24T12:55:01;7.23;;;2.80;;
10295;SDS011;5193;51.032;6.356;2023-04-24T12:57:28;8.83;;;2.83;;
10295;SDS011;5193;51.032;6.356;2023-04-24T12:59:55;12.50;;;3.40;;
10295;SDS011;5193;51.032;6.356;2023-04-24T13:02:25;3.90;;;2.20;;
10295;SDS011;5193;51.032;6.356;2023-04-24T13:04:54;8.03;;;2.70;;
10295;SDS011;5193;51.032;6.356;2023-04-24T13:07:19;6.90;;;2.67;;
10295;SDS011;5193;51.032;6.356;2023-04-24T13:09:45;6.73;;;2.30;;
10295;SDS011;5193;51.032;6.356;2023-04-24T13:12:12;7.03;;;2.37;;
10295;SDS011;5193;51.032;6.356;2023-04-24T13:14:38;3.33;;;2.10;;
10295;SDS011;5193;51.032;6.356;2023-04-24T13:17:04;7.10;;;2.43;;
10295;SDS011;5193;51.032;6.356;2023-04-24T13:19:34;6.53;;;2.30;;
10295;SDS011;5193;51.032;6.356;2023-04-24T13:22:04;6.00;;;2.47;;
10295;SDS011;5193;51.032;6.356;2023-04-24T13:24:30;4.17;;;2.07;;
10295;SDS011;5193;51.032;6.356;2023-04-24T13:26:56;6.40;;;2.17;;
10295;SDS011;5193;51.032;6.356;2023-04-24T13:29:22;9.00;;;2.63;;
10295;SDS011;5193;51.032;6.356;2023-04-24T13:31:52;6.33;;;2.27;;
10295;SDS011;5193;51.032;6.356;2023-04-24T13:34:22;8.03;;;2.90;;
10295;SDS011;5193;51.032;6.356;2023-04-24T13:36:49;8.37;;;3.17;;
10295;SDS011;5193;51.032;6.356;2023-04-24T13:39:16;7.87;;;2.60;;
10295;SDS011;5193;51.032;6.356;2023-04-24T13:41:41;4.20;;;2.30;;
10295;SDS011;5193;51.032;6.356;2023-04-24T13:44:07;4.83;;;2.20;;
10295;SDS011;5193;51.032;6.356;2023-04-24T13:46:33;9.70;;;3.83;;
10295;SDS011;5193;51.032;6.356;2023-04-24T13:48:59;5.77;;;2.33;;
10295;SDS011;5193;51.032;6.356;2023-04-24T13:51:27;6.77;;;2.07;;
10295;SDS011;5193;51.032;6.356;2023-04-24T13:53:53;5.90;;;2.17;;
10295;SDS011;5193;51.032;6.356;2023-04-24T13:56:19;6.80;;;2.73;;
10295;SDS011;5193;51.032;6.356;2023-04-24T13:58:45;12.30;;;2.80;;
10295;SDS011;5193;51.032;6.356;2023-04-24T14:01:11;5.60;;;2.23;;
10295;SDS011;5193;51.032;6.356;2023-04-24T14:03:38;6.53;;;2.13;;
10295;SDS011;5193;51.032;6.356;2023-04-24T14:06:03;6.90;;;2.47;;
10295;SDS011;5193;51.032;6.356;2023-04-24T14:08:29;4.43;;;2.37;;
10295;SDS011;5193;51.032;6.356;2023-04-24T14:10:54;5.20;;;1.93;;
10295;SDS011;5193;51.032;6.356;2023-04-24T14:13:20;7.47;;;2.27;;
10295;SDS011;5193;51.032;6.356;2023-04-24T14:15:46;4.80;;;2.63;;
10295;SDS011;5193;51.032;6.356;2023-04-24T14:18:12;4.57;;;2.20;;
10295;SDS011;5193;51.032;6.356;2023-04-24T14:20:37;8.63;;;2.43;;
10295;SDS011;5193;51.032;6.356;2023-04-24T14:23:03;4.57;;;2.20;;
10295;SDS011;5193;51.032;6.356;2023-04-24T14:25:29;6.70;;;2.37;;
10295;SDS011;5193;51.032;6.356;2023-04-24T14:27:55;3.93;;;2.33;;
10295;SDS011;5193;51.032;6.356;2023-04-24T14:30:21;5.87;;;2.33;;
10295;SDS011;5193;51.032;6.356;2023-04-24T14:32:47;5.50;;;2.40;;
10295;SDS011;5193;51.032;6.356;2023-04-24T14:35:13;11.83;;;2.63;;
10295;SDS011;5193;51.032;6.356;2023-04-24T14:37:39;6.43;;;2.33;;
10295;SDS011;5193;51.032;6.356;2023-04-24T14:40:08;5.17;;;2.47;;
10295;SDS011;5193;51.032;6.356;2023-04-24T14:42:34;6.30;;;2.20;;
10295;SDS011;5193;51.032;6.356;2023-04-24T14:45:00;5.40;;;2.40;;
10295;SDS011;5193;51.032;6.356;2023-04-24T14:47:26;4.67;;;2.13;;
10295;SDS011;5193;51.032;6.356;2023-04-24T14:49:52;5.93;;;2.07;;
10295;SDS011;5193;51.032;6.356;2023-04-24T14:52:18;3.13;;;2.07;;
10295;SDS011;5193;51.032;6.356;2023-04-24T14:54:45;4.13;;;2.23;;
10295;SDS011;5193;51.032;6.356;2023-04-24T14:57:10;3.27;;;2.13;;
10295;SDS011;5193;51.032;6.356;2023-04-24T14:59:36;5.37;;;2.43;;
10295;SDS011;5193;51.032;6.356;2023-04-24T15:02:02;4.03;;;2.13;;
10295;SDS011;5193;51.032;6.356;2023-04-24T15:04:28;3.93;;;1.93;;
10295;SDS011;5193;51.032;6.356;2023-04-24T15:06:54;5.43;;;1.70;;
10295;SDS011;5193;51.032;6.356;2023-04-24T15:09:23;4.93;;;1.97;;